Time;durP1;ratioP1;P1;durP2;ratioP2;P2;SDS_P1;SDS_P2;PMS_P1;PMS_P2;Temp;Humidity;BMP_temperature;BMP_pressure;BME280_temperature;BME280_humidity;BME280_pressure;Samples;Min_cycle;Max_cycle;Signal;HPM_P1;HPM_P2
2023/01/17 00:01:32;;;;;;;3.22;0.65;;;17.00;1.00;;;;;;5012090;28;20045;-41
2023/01/17 00:12:16;;;;;;;2.97;0.35;;;16.90;1.00;;;;;;5011685;28;20509;-40
2023/01/17 00:14:43;;;;;;;4.47;0.70;;;16.90;1.00;;;;;;5011556;28;20417;-40
2023/01/17 00:17:10;;;;;;;2.47;0.80;;;16.80;1.00;;;;;;5011842;28;20113;-40
2023/01/17 01:34:49;;;;;;;2.72;0.55;;;16.00;1.00;;;;;;5014207;28;20077;-39
2023/01/17 01:37:16;;;;;;;2.88;0.63;;;16.00;1.00;;;;;;5013530;28;20646;-40
2023/01/17 01:39:43;;;;;;;1.00;0.45;;;16.00;1.00;;;;;;5013236;28;20077;-39
2023/01/17 01:42:14;;;;;;;3.40;0.57;;;16.00;1.00;;;;;;5013701;28;20092;-40
2023/01/17 01:44:46;;;;;;;2.90;0.82;;;15.90;1.00;;;;;;5014017;28;20121;-40
2023/01/17 01:47:37;;;;;;;3.93;0.53;;;15.90;1.00;;;;;;5014103;28;20128;-41
2023/01/17 01:50:07;;;;;;;1.08;0.25;;;15.90;1.00;;;;;;5013888;28;20410;-40
2023/01/17 01:52:38;;;;;;;3.67;0.50;;;15.90;1.00;;;;;;5013711;28;20509;-40
2023/01/17 01:55:11;;;;;;;2.95;0.47;;;15.90;1.00;;;;;;5013841;28;20038;-40
2023/01/17 01:57:41;;;;;;;1.92;0.43;;;15.80;1.00;;;;;;5013916;28;20045;-40
2023/01/17 02:00:30;;;;;;;1.65;0.30;;;15.80;1.00;;;;;;5014003;28;20129;-40
2023/01/17 02:03:00;;;;;;;2.45;0.35;;;15.80;1.00;;;;;;5013313;28;20049;-40
2023/01/17 02:05:27;;;;;;;2.03;0.40;;;15.80;1.00;;;;;;5013635;28;20555;-41
2023/01/17 02:08:07;;;;;;;1.95;0.50;;;15.70;1.00;;;;;;5013754;28;20049;-40
2023/01/17 02:10:35;;;;;;;4.35;0.57;;;15.70;1.00;;;;;;5013517;28;20462;-40
2023/01/17 02:13:03;;;;;;;2.10;0.55;;;15.70;1.00;;;;;;5013339;28;20479;-40
2023/01/17 02:15:48;;;;;;;2.05;0.30;;;15.60;1.00;;;;;;5013229;28;20052;-40
2023/01/17 02:18:38;;;;;;;4.00;0.32;;;15.60;1.00;;;;;;5013573;28;20034;-40
2023/01/17 02:21:14;;;;;;;1.23;0.20;;;15.60;1.00;;;;;;5013477;28;20042;-40
2023/01/17 02:23:55;;;;;;;1.95;0.40;;;15.60;1.00;;;;;;5013144;28;20596;-40
2023/01/17 02:26:30;;;;;;;2.70;0.32;;;15.50;1.00;;;;;;5013347;28;20046;-40
2023/01/17 02:29:21;;;;;;;5.25;0.52;;;15.50;1.00;;;;;;5013263;28;20049;-40
2023/01/17 02:32:03;;;;;;;1.70;0.40;;;15.50;1.00;;;;;;5013119;28;20061;-40
2023/01/17 02:34:45;;;;;;;1.03;0.23;;;15.40;1.00;;;;;;5012989;28;20057;-40
2023/01/17 02:37:33;;;;;;;4.97;0.65;;;15.40;1.00;;;;;;5013035;28;20064;-41
2023/01/17 02:40:05;;;;;;;2.10;0.40;;;15.40;1.00;;;;;;5013080;28;20038;-40
2023/01/17 02:42:44;;;;;;;4.57;0.85;;;15.40;1.00;;;;;;5012860;28;20065;-40
2023/01/17 02:45:18;;;;;;;3.00;1.05;;;15.40;1.00;;;;;;5013029;28;20069;-40
2023/01/17 02:47:45;;;;;;;2.13;0.25;;;15.30;1.00;;;;;;5012997;28;20046;-40
2023/01/17 02:50:16;;;;;;;0.63;0.10;;;15.30;1.00;;;;;;5021553;23;20050;-41
2023/01/17 02:53:05;;;;;;;0.60;0.28;;;15.30;1.00;;;;;;5011462;28;20055;-41
2023/01/17 02:55:53;;;;;;;2.63;0.50;;;15.20;1.00;;;;;;5000238;28;20045;-40
2023/01/17 02:58:44;;;;;;;5.55;0.52;;;15.20;1.00;;;;;;5005947;28;20124;-41
2023/01/17 03:01:14;;;;;;;1.92;0.50;;;15.20;1.00;;;;;;4992837;28;20053;-41
2023/01/17 03:04:07;;;;;;;1.65;0.40;;;15.20;1.00;;;;;;4992679;28;20070;-41
2023/01/17 03:06:47;;;;;;;2.65;0.32;;;15.20;1.00;;;;;;4973605;28;20451;-40
2023/01/17 03:09:16;;;;;;;1.00;0.15;;;15.10;1.00;;;;;;4973499;28;20101;-41
2023/01/17 03:11:43;;;;;;;1.23;0.28;;;15.10;1.00;;;;;;4973358;28;20082;-41
2023/01/17 03:14:11;;;;;;;2.85;0.43;;;15.10;1.00;;;;;;4973288;28;20046;-41
2023/01/17 03:16:38;;;;;;;1.58;0.55;;;15.10;1.00;;;;;;4973265;28;20038;-41
2023/01/17 03:19:05;;;;;;;3.25;0.98;;;15.10;1.00;;;;;;4986144;28;20126;-41
2023/01/17 03:21:32;;;;;;;5.20;0.88;;;15.10;1.00;;;;;;4992694;28;20192;-41
2023/01/17 03:23:58;;;;;;;2.15;0.30;;;15.10;1.00;;;;;;4992462;28;20043;-40
2023/01/17 03:26:25;;;;;;;2.20;0.40;;;15.00;1.00;;;;;;4992596;28;20058;-40
2023/01/17 03:28:52;;;;;;;1.92;0.38;;;15.00;1.00;;;;;;4992634;28;20046;-41
2023/01/17 03:31:19;;;;;;;2.47;0.30;;;15.00;1.00;;;;;;4992511;28;20039;-41
2023/01/17 03:33:45;;;;;;;2.38;0.20;;;15.00;1.00;;;;;;4992288;28;20414;-41
2023/01/17 03:36:12;;;;;;;1.67;0.40;;;15.00;1.00;;;;;;4992490;28;20049;-41
2023/01/17 03:38:39;;;;;;;4.28;0.90;;;15.00;1.00;;;;;;4991421;28;20054;-41
2023/01/17 03:41:06;;;;;;;2.25;0.43;;;14.90;1.00;;;;;;4992448;28;20066;-41
2023/01/17 03:43:33;;;;;;;1.05;0.10;;;14.90;1.00;;;;;;4991966;28;20039;-41
2023/01/17 03:46:02;;;;;;;2.20;0.43;;;14.90;1.00;;;;;;4990835;28;20054;-41
2023/01/17 03:48:29;;;;;;;2.78;0.47;;;14.90;1.00;;;;;;4992411;28;20042;-41
2023/01/17 03:50:56;;;;;;;1.98;0.43;;;14.90;1.00;;;;;;4992037;28;20069;-43
2023/01/17 03:53:23;;;;;;;1.63;0.60;;;14.80;1.00;;;;;;4992045;28;20062;-41
2023/01/17 03:55:50;;;;;;;1.92;1.20;;;14.80;1.00;;;;;;4992394;28;20097;-41
2023/01/17 03:58:17;;;;;;;1.13;0.28;;;14.80;1.00;;;;;;4992381;28;20046;-41
2023/01/17 04:00:44;;;;;;;3.08;0.30;;;14.80;1.00;;;;;;4990839;28;20507;-41
2023/01/17 04:03:10;;;;;;;2.88;0.30;;;14.80;1.00;;;;;;4972760;28;20046;-41
2023/01/17 04:05:37;;;;;;;3.35;0.65;;;14.70;1.00;;;;;;4975528;28;20482;-41
2023/01/17 04:08:05;;;;;;;1.45;0.45;;;14.80;1.00;;;;;;4976822;28;20121;-41
2023/01/17 04:10:32;;;;;;;1.85;0.20;;;14.70;1.00;;;;;;4976811;28;20077;-41
2023/01/17 04:12:59;;;;;;;2.00;0.80;;;14.70;1.00;;;;;;4985217;28;20573;-41
2023/01/17 04:15:26;;;;;;;1.55;0.40;;;14.70;1.00;;;;;;4995919;28;20048;-41
2023/01/17 04:17:53;;;;;;;1.83;0.73;;;14.70;1.00;;;;;;4996072;28;20077;-41
2023/01/17 04:20:36;;;;;;;1.48;0.38;;;14.70;1.00;;;;;;4995917;28;20125;-40
2023/01/17 04:23:04;;;;;;;2.10;0.47;;;14.70;1.00;;;;;;4995804;28;20046;-45
2023/01/17 04:25:31;;;;;;;2.00;0.22;;;14.70;1.00;;;;;;4995954;28;20050;-41
2023/01/17 04:27:59;;;;;;;0.75;0.20;;;14.60;1.00;;;;;;4995870;28;20050;-41
2023/01/17 04:30:27;;;;;;;2.35;0.50;;;14.60;1.00;;;;;;4995666;28;20632;-40
2023/01/17 04:32:54;;;;;;;2.38;0.47;;;14.60;1.00;;;;;;4995465;28;20050;-41
2023/01/17 04:35:21;;;;;;;4.22;0.30;;;14.60;1.00;;;;;;4995805;28;20068;-41
2023/01/17 04:37:48;;;;;;;3.40;0.35;;;14.60;1.00;;;;;;4995667;28;20038;-42
2023/01/17 04:40:16;;;;;;;3.50;0.45;;;14.60;1.00;;;;;;4995602;28;20097;-41
2023/01/17 04:42:47;;;;;;;1.95;0.98;;;14.50;1.00;;;;;;4995331;28;20050;-44
2023/01/17 04:45:14;;;;;;;0.50;0.15;;;14.50;1.00;;;;;;4994332;28;20138;-41
2023/01/17 04:47:41;;;;;;;2.60;0.30;;;14.50;1.00;;;;;;4995455;28;20046;-42
2023/01/17 04:50:09;;;;;;;0.88;0.30;;;14.50;1.00;;;;;;4995376;28;20047;-41
2023/01/17 04:52:36;;;;;;;0.93;0.32;;;14.50;1.00;;;;;;4995404;28;20070;-41
2023/01/17 04:55:03;;;;;;;2.15;0.20;;;14.50;1.00;;;;;;4995443;28;20046;-41
2023/01/17 04:57:29;;;;;;;2.78;1.25;;;14.40;1.00;;;;;;4995357;28;20053;-41
2023/01/17 04:59:56;;;;;;;0.60;0.30;;;14.50;1.00;;;;;;4995286;28;20118;-41
2023/01/17 05:02:23;;;;;;;1.52;0.30;;;14.40;1.00;;;;;;4995050;28;20049;-40
2023/01/17 05:04:50;;;;;;;1.27;0.30;;;14.40;1.00;;;;;;4995143;28;20035;-41
2023/01/17 05:07:16;;;;;;;0.80;0.20;;;14.40;1.00;;;;;;4995199;28;20120;-41
2023/01/17 05:09:43;;;;;;;1.50;0.25;;;14.40;1.00;;;;;;4994036;28;20053;-41
2023/01/17 05:12:10;;;;;;;4.22;0.30;;;14.40;1.00;;;;;;4990396;28;20046;-40
2023/01/17 05:14:37;;;;;;;1.45;0.30;;;14.40;1.00;;;;;;4989193;28;20042;-41
2023/01/17 05:17:03;;;;;;;1.65;0.32;;;14.40;1.00;;;;;;4990016;28;20046;-41
2023/01/17 05:19:30;;;;;;;0.75;0.10;;;14.30;1.00;;;;;;4989047;28;20042;-40
2023/01/17 05:22:02;;;;;;;2.42;0.68;;;14.40;1.00;;;;;;4994786;28;20047;-40
2023/01/17 05:24:31;;;;;;;1.93;0.20;;;14.30;1.00;;;;;;4991944;28;20398;-41
2023/01/17 05:27:01;;;;;;;10.55;0.63;;;14.30;1.00;;;;;;4994052;28;20042;-40
2023/01/17 05:29:29;;;;;;;5.30;0.73;;;14.30;1.00;;;;;;4994518;28;20109;-41
2023/01/17 05:31:56;;;;;;;7.38;0.20;;;14.30;1.00;;;;;;4994701;28;20046;-40
2023/01/17 05:34:23;;;;;;;1.77;0.50;;;14.30;1.00;;;;;;4994697;28;20132;-40
2023/01/17 05:36:51;;;;;;;2.75;0.40;;;14.30;1.00;;;;;;4994542;28;20046;-40
2023/01/17 05:39:17;;;;;;;4.28;0.43;;;14.30;1.00;;;;;;4994536;28;20039;-40
2023/01/17 05:41:45;;;;;;;2.55;0.20;;;14.30;1.00;;;;;;4994405;28;20576;-40
2023/01/17 05:44:12;;;;;;;3.85;0.77;;;14.30;1.00;;;;;;4994230;28;20402;-41
2023/01/17 05:46:38;;;;;;;5.72;0.52;;;14.30;1.00;;;;;;4994575;28;20046;-40
2023/01/17 05:49:05;;;;;;;5.28;0.22;;;14.20;1.00;;;;;;4994305;28;20078;-40
2023/01/17 05:51:36;;;;;;;3.55;0.40;;;14.20;1.00;;;;;;4994334;28;20096;-40
2023/01/17 05:54:04;;;;;;;2.92;0.68;;;14.20;1.00;;;;;;4993991;28;20046;-40
2023/01/17 05:56:31;;;;;;;4.78;0.10;;;14.20;1.00;;;;;;4994117;28;20038;-40
2023/01/17 05:58:58;;;;;;;1.52;0.45;;;14.20;1.00;;;;;;4991056;28;20039;-41
2023/01/17 06:01:24;;;;;;;1.52;0.30;;;14.20;1.00;;;;;;4992506;28;20071;-40
2023/01/17 06:03:51;;;;;;;1.75;0.30;;;14.20;1.00;;;;;;4993253;28;20066;-40
2023/01/17 06:06:18;;;;;;;3.75;0.30;;;14.10;1.00;;;;;;4994096;28;20049;-41
2023/01/17 06:08:45;;;;;;;1.27;0.30;;;14.10;1.00;;;;;;4992731;28;20047;-40
2023/01/17 06:11:11;;;;;;;2.90;0.25;;;14.10;1.00;;;;;;4994000;28;20073;-40
2023/01/17 06:13:38;;;;;;;2.75;0.45;;;14.10;1.00;;;;;;4993763;28;20118;-42
2023/01/17 06:16:05;;;;;;;1.20;0.43;;;14.10;1.00;;;;;;4993959;28;20461;-40
2023/01/17 06:18:32;;;;;;;2.03;0.30;;;14.10;1.00;;;;;;4992567;28;20096;-40
2023/01/17 06:20:59;;;;;;;1.58;0.32;;;14.10;1.00;;;;;;4993797;28;20045;-41
2023/01/17 06:23:25;;;;;;;1.33;0.20;;;14.10;1.00;;;;;;4993397;28;20093;-40
2023/01/17 06:25:53;;;;;;;0.77;0.10;;;14.00;1.00;;;;;;4993707;28;20573;-40
2023/01/17 06:28:22;;;;;;;1.10;0.20;;;14.00;1.00;;;;;;4991506;28;20108;-41
2023/01/17 06:30:49;;;;;;;2.05;0.85;;;14.00;1.00;;;;;;4992323;28;20113;-41
2023/01/17 06:33:16;;;;;;;2.63;0.20;;;14.00;1.00;;;;;;4993322;28;20100;-40
2023/01/17 06:35:48;;;;;;;1.55;0.32;;;14.00;1.00;;;;;;4993378;28;20057;-41
2023/01/17 06:38:15;;;;;;;0.45;0.10;;;14.00;1.00;;;;;;4993423;28;20054;-41
2023/01/17 06:40:41;;;;;;;1.90;0.30;;;14.00;1.00;;;;;;4993330;28;20089;-40
2023/01/17 06:43:08;;;;;;;3.35;0.77;;;14.00;1.00;;;;;;4993076;28;20085;-40
2023/01/17 06:45:35;;;;;;;1.33;0.35;;;13.90;1.00;;;;;;4993189;28;20034;-41
2023/01/17 06:48:03;;;;;;;3.70;0.50;;;14.00;1.00;;;;;;4993798;28;20047;-40
2023/01/17 06:50:31;;;;;;;2.05;0.65;;;14.00;1.00;;;;;;4992999;28;20049;-41
2023/01/17 06:53:01;;;;;;;2.13;0.22;;;14.10;1.00;;;;;;4992895;28;20053;-40
2023/01/17 06:55:29;;;;;;;1.33;0.52;;;14.10;1.00;;;;;;4993175;28;20130;-41
2023/01/17 06:57:58;;;;;;;1.65;0.30;;;14.20;1.00;;;;;;4991731;28;20054;-41
2023/01/17 07:00:26;;;;;;;2.60;0.50;;;14.30;1.00;;;;;;4992935;28;20387;-40
2023/01/17 07:02:53;;;;;;;1.35;0.32;;;14.50;1.00;;;;;;4992704;28;20486;-40
2023/01/17 07:05:20;;;;;;;1.58;0.20;;;14.50;1.00;;;;;;4993040;28;20125;-40
2023/01/17 07:07:47;;;;;;;1.42;0.28;;;14.60;1.00;;;;;;4992885;28;20069;-40
2023/01/17 07:10:15;;;;;;;1.45;0.32;;;14.70;1.00;;;;;;4992812;28;20450;-41
2023/01/17 07:12:41;;;;;;;1.10;0.30;;;14.80;1.00;;;;;;4992628;28;20513;-40
2023/01/17 07:15:09;;;;;;;2.60;0.50;;;14.90;1.00;;;;;;4992876;28;20128;-40
2023/01/17 07:17:36;;;;;;;1.05;0.20;;;15.00;1.00;;;;;;4992567;28;20395;-45
2023/01/17 07:20:04;;;;;;;1.05;0.30;;;15.10;1.00;;;;;;4992947;28;20477;-40
2023/01/17 07:22:31;;;;;;;1.23;0.10;;;15.10;1.00;;;;;;4992878;28;20108;-41
2023/01/17 07:24:57;;;;;;;0.90;0.35;;;15.20;1.00;;;;;;4992566;28;20038;-41
2023/01/17 07:27:26;;;;;;;0.40;0.20;;;15.20;1.00;;;;;;4992925;28;20129;-41
2023/01/17 07:29:53;;;;;;;2.65;0.40;;;15.20;1.00;;;;;;4992502;28;20141;-40
2023/01/17 07:32:20;;;;;;;1.33;0.68;;;15.30;1.00;;;;;;4991171;28;20141;-40
2023/01/17 07:34:47;;;;;;;2.08;0.32;;;15.30;1.00;;;;;;4992582;28;20046;-40
2023/01/17 07:37:13;;;;;;;1.35;0.30;;;15.40;1.00;;;;;;4992461;28;20403;-41
2023/01/17 07:39:41;;;;;;;0.88;0.30;;;15.40;1.00;;;;;;4992264;28;20386;-40
2023/01/17 07:42:08;;;;;;;1.65;0.20;;;15.40;1.00;;;;;;4992572;28;20260;-41
2023/01/17 07:44:35;;;;;;;1.50;0.20;;;15.40;1.00;;;;;;4992234;28;20039;-40
2023/01/17 07:47:03;;;;;;;1.02;0.20;;;15.40;1.00;;;;;;4991091;28;20081;-41
2023/01/17 07:49:29;;;;;;;1.65;0.40;;;15.40;1.00;;;;;;4992427;28;20042;-41
2023/01/17 07:51:56;;;;;;;1.75;0.50;;;15.40;1.00;;;;;;4990977;28;20536;-40
2023/01/17 07:54:23;;;;;;;1.70;0.75;;;15.40;1.00;;;;;;4990530;28;20105;-41
2023/01/17 07:56:50;;;;;;;0.50;0.38;;;15.40;1.00;;;;;;4987366;28;20498;-41
2023/01/17 07:59:17;;;;;;;2.47;0.30;;;15.40;1.00;;;;;;4986585;28;20043;-41
2023/01/17 08:01:43;;;;;;;0.95;0.40;;;15.40;1.00;;;;;;4990939;28;20108;-41
2023/01/17 08:04:10;;;;;;;1.17;0.30;;;15.30;1.00;;;;;;4990604;28;20444;-41
2023/01/17 08:06:40;;;;;;;0.32;0.10;;;15.30;1.00;;;;;;4992169;28;20486;-41
2023/01/17 08:09:07;;;;;;;2.03;0.35;;;15.30;1.00;;;;;;4992609;28;20074;-41
2023/01/17 08:11:34;;;;;;;1.52;0.60;;;15.30;1.00;;;;;;4992108;28;20560;-41
2023/01/17 08:14:01;;;;;;;3.45;0.55;;;15.30;1.00;;;;;;4992003;28;20054;-41
2023/01/17 08:16:28;;;;;;;1.10;0.20;;;15.20;1.00;;;;;;4992156;28;20050;-41
2023/01/17 08:18:56;;;;;;;2.20;0.60;;;15.20;1.00;;;;;;4992129;28;20046;-41
2023/01/17 08:21:27;;;;;;;1.05;0.20;;;15.20;1.00;;;;;;4992028;28;20053;-41
2023/01/17 08:24:29;;;;;;;0.82;0.22;;;15.20;1.00;;;;;;4991796;28;20046;-40
2023/01/17 08:27:22;;;;;;;1.02;0.30;;;15.20;1.00;;;;;;4992054;28;20062;-41
2023/01/17 08:30:10;;;;;;;0.93;0.40;;;15.20;1.00;;;;;;4991937;28;20050;-40
2023/01/17 08:32:39;;;;;;;;;;;15.10;1.00;;;;;;4990882;28;20446;-41
2023/01/17 08:35:08;;;;;;;1.30;0.30;;;15.10;1.00;;;;;;4991964;28;19926;-41
2023/01/17 08:37:36;;;;;;;2.75;0.45;;;15.00;1.00;;;;;;4991931;28;20046;-40
2023/01/17 08:40:04;;;;;;;5.80;0.65;;;15.00;1.00;;;;;;4991724;28;20051;-41
2023/01/17 08:42:37;;;;;;;1.63;0.52;;;15.00;1.00;;;;;;4991877;28;20051;-41
2023/01/17 08:45:07;;;;;;;1.08;0.30;;;15.00;1.00;;;;;;4991874;28;20041;-41
2023/01/17 08:47:36;;;;;;;2.65;0.43;;;14.90;1.00;;;;;;4992047;28;20057;-41
2023/01/17 08:50:05;;;;;;;3.47;0.30;;;14.90;1.00;;;;;;4991799;28;20050;-41
2023/01/17 08:52:33;;;;;;;1.17;0.17;;;14.90;1.00;;;;;;4992731;28;20065;-41
2023/01/17 08:54:59;;;;;;;3.13;0.80;;;14.90;1.00;;;;;;4995233;28;20049;-41
2023/01/17 08:57:26;;;;;;;1.67;0.20;;;14.90;1.00;;;;;;4993964;28;20472;-41
2023/01/17 08:59:53;;;;;;;1.67;0.52;;;14.90;1.00;;;;;;4995181;28;20042;-41
2023/01/17 09:02:22;;;;;;;1.00;0.15;;;14.90;1.00;;;;;;4995182;28;20047;-41
2023/01/17 09:04:50;;;;;;;2.90;0.35;;;14.80;1.00;;;;;;4995056;28;20038;-41
2023/01/17 09:07:19;;;;;;;1.67;0.32;;;14.80;1.00;;;;;;4995241;28;20060;-41
2023/01/17 09:09:45;;;;;;;0.98;0.50;;;14.70;1.00;;;;;;4995109;28;20488;-40
2023/01/17 09:12:12;;;;;;;3.28;0.30;;;14.80;1.00;;;;;;4994903;28;20132;-41
2023/01/17 09:14:39;;;;;;;1.42;0.40;;;14.70;1.00;;;;;;4994756;28;20058;-41
2023/01/17 09:17:06;;;;;;;0.95;0.35;;;14.70;1.00;;;;;;4994906;28;20124;-41
2023/01/17 09:19:34;;;;;;;0.73;0.20;;;14.70;1.00;;;;;;4994921;28;20046;-41
2023/01/17 09:22:03;;;;;;;1.48;0.43;;;14.60;1.00;;;;;;4994927;28;20043;-41
2023/01/17 09:24:31;;;;;;;1.05;0.30;;;14.70;1.00;;;;;;4993142;28;20044;-41
2023/01/17 09:26:59;;;;;;;0.68;0.20;;;14.60;1.00;;;;;;4995040;28;20449;-41
2023/01/17 09:29:26;;;;;;;1.80;0.35;;;14.60;1.00;;;;;;4994689;28;20054;-41
2023/01/17 09:31:54;;;;;;;0.40;0.20;;;14.60;1.00;;;;;;4994660;28;20080;-41
2023/01/17 09:34:29;;;;;;;1.33;1.15;;;14.60;1.00;;;;;;4994491;28;20406;-40
2023/01/17 09:36:56;;;;;;;1.02;0.35;;;14.60;1.00;;;;;;4994681;28;20453;-41
2023/01/17 09:39:23;;;;;;;2.20;0.20;;;14.60;1.00;;;;;;4994394;28;20108;-41
2023/01/17 09:42:24;;;;;;;0.93;0.30;;;14.60;1.00;;;;;;4994466;28;20042;-41
2023/01/17 09:44:54;;;;;;;1.45;0.50;;;14.60;1.00;;;;;;4994347;28;20042;-41
2023/01/17 09:47:39;;;;;;;0.25;0.10;;;14.60;1.00;;;;;;4994443;28;20054;-40
2023/01/17 09:50:29;;;;;;;1.23;0.30;;;14.50;1.00;;;;;;4992907;28;20042;-40
2023/01/17 09:53:00;;;;;;;4.60;0.90;;;14.50;1.00;;;;;;4993703;28;20053;-41
2023/01/17 09:55:51;;;;;;;1.88;0.45;;;14.50;1.00;;;;;;4992824;28;20455;-41
2023/01/17 09:58:33;;;;;;;0.52;0.30;;;14.60;1.00;;;;;;4994257;28;20038;-41
2023/01/17 10:01:21;;;;;;;1.95;0.47;;;14.50;1.00;;;;;;4992963;28;20042;-41
2023/01/17 10:03:54;;;;;;;0.60;0.22;;;14.50;1.00;;;;;;4993661;28;20157;-41
2023/01/17 10:06:27;;;;;;;2.70;0.68;;;14.50;1.00;;;;;;4992690;28;20042;-41
2023/01/17 10:09:13;;;;;;;1.30;0.65;;;14.50;1.00;;;;;;4994004;28;20058;-40
2023/01/17 10:11:59;;;;;;;2.63;0.52;;;14.50;1.00;;;;;;4994004;28;20125;-41
2023/01/17 10:14:41;;;;;;;2.65;0.47;;;14.50;1.00;;;;;;4992422;28;20109;-41
2023/01/17 10:17:37;;;;;;;1.50;0.22;;;14.50;1.00;;;;;;5010587;23;20124;-41
2023/01/17 10:20:40;;;;;;;1.20;0.50;;;14.50;1.00;;;;;;5013689;28;20507;-40
2023/01/17 10:23:52;;;;;;;4.30;0.70;;;14.50;1.00;;;;;;4991204;28;20049;-40
2023/01/17 10:26:24;;;;;;;1.10;0.43;;;14.60;1.00;;;;;;5001200;28;20136;-40
2023/01/17 10:28:55;;;;;;;1.83;0.55;;;14.50;1.00;;;;;;5013258;28;20064;-40
2023/01/17 10:31:34;;;;;;;1.73;0.57;;;14.50;1.00;;;;;;5013251;28;20100;-40
2023/01/17 10:34:11;;;;;;;1.05;0.43;;;14.60;1.00;;;;;;5012959;28;20053;-40
2023/01/17 10:36:45;;;;;;;1.58;0.60;;;14.50;1.00;;;;;;5012991;28;20065;-40
2023/01/17 10:39:23;;;;;;;1.02;0.28;;;14.60;1.00;;;;;;5013039;28;20046;-40
2023/01/17 10:42:13;;;;;;;2.78;0.50;;;14.60;1.00;;;;;;5013012;28;20100;-40
2023/01/17 10:44:43;;;;;;;1.38;0.60;;;14.60;1.00;;;;;;5012804;28;20627;-40
2023/01/17 10:47:17;;;;;;;1.20;0.40;;;14.50;1.00;;;;;;5013002;28;20037;-40
2023/01/17 10:49:51;;;;;;;1.00;0.50;;;14.60;1.00;;;;;;5012726;28;20043;-40
2023/01/17 10:52:26;;;;;;;1.17;0.50;;;14.50;1.00;;;;;;5012788;28;20517;-40
2023/01/17 10:54:53;;;;;;;0.93;0.40;;;14.50;1.00;;;;;;5012619;28;20073;-40
2023/01/17 10:57:25;;;;;;;1.90;0.77;;;14.50;1.00;;;;;;5012644;28;20053;-40
2023/01/17 10:59:58;;;;;;;2.78;0.40;;;14.50;1.00;;;;;;5011501;28;20042;-41
2023/01/17 11:02:31;;;;;;;0.43;0.20;;;14.60;1.00;;;;;;5012526;28;20077;-40
2023/01/17 11:05:19;;;;;;;1.30;0.60;;;14.50;1.00;;;;;;5012434;28;20044;-40
2023/01/17 11:08:06;;;;;;;1.40;0.55;;;14.50;1.00;;;;;;5012679;28;20502;-40
2023/01/17 11:10:38;;;;;;;1.63;0.57;;;14.60;1.00;;;;;;5012389;28;20046;-40
2023/01/17 11:13:30;;;;;;;1.53;0.40;;;14.50;1.00;;;;;;5012321;28;20125;-40
2023/01/17 11:16:08;;;;;;;1.35;0.50;;;14.50;1.00;;;;;;5001267;28;20318;-40
2023/01/17 11:18:37;;;;;;;3.03;0.50;;;14.50;1.00;;;;;;5012310;28;20042;-40
2023/01/17 11:21:22;;;;;;;1.42;0.63;;;14.50;1.00;;;;;;5012156;28;20134;-40
2023/01/17 11:23:53;;;;;;;2.15;0.55;;;14.50;1.00;;;;;;5012111;28;20382;-40
2023/01/17 11:26:29;;;;;;;1.10;0.50;;;14.50;1.00;;;;;;5012197;28;20096;-39
2023/01/17 11:29:34;;;;;;;0.73;0.30;;;14.50;1.00;;;;;;5012275;28;20473;-39
2023/01/17 11:32:30;;;;;;;0.82;0.35;;;14.50;1.00;;;;;;5012226;28;20136;-39
2023/01/17 11:35:03;;;;;;;2.00;1.00;;;14.50;1.00;;;;;;5012037;28;20104;-39
2023/01/17 11:37:30;;;;;;;2.85;0.47;;;14.50;1.00;;;;;;5012169;28;20038;-40
2023/01/17 11:40:27;;;;;;;1.35;0.30;;;14.50;1.00;;;;;;5011940;28;20125;-40
2023/01/17 11:43:19;;;;;;;2.80;0.55;;;14.50;1.00;;;;;;4996106;28;20555;-40
2023/01/17 11:46:26;;;;;;;1.50;0.50;;;14.50;1.00;;;;;;5012098;28;20046;-40
2023/01/17 11:48:56;;;;;;;0.70;0.30;;;14.50;1.00;;;;;;5009739;28;20081;-42
2023/01/17 11:51:27;;;;;;;1.35;0.40;;;14.40;1.00;;;;;;5011985;28;20081;-41
2023/01/17 11:54:05;;;;;;;1.35;0.50;;;14.40;1.00;;;;;;5011784;28;20080;-40
2023/01/17 11:56:35;;;;;;;1.92;0.40;;;14.40;1.00;;;;;;5011796;28;20433;-41
2023/01/17 11:59:20;;;;;;;0.77;0.28;;;14.40;1.00;;;;;;5011998;28;20053;-41
2023/01/17 12:02:16;;;;;;;1.17;0.38;;;14.40;1.00;;;;;;5012034;28;20053;-41
2023/01/17 12:05:03;;;;;;;0.95;0.45;;;14.40;1.00;;;;;;5011515;28;20408;-40
2023/01/17 12:07:45;;;;;;;0.95;0.40;;;14.40;1.00;;;;;;5011994;28;20052;-40
2023/01/17 12:10:31;;;;;;;0.77;0.22;;;14.40;1.00;;;;;;5011893;28;20422;-40
2023/01/17 12:19:22;;;;;;;2.65;0.50;;;14.40;1.00;;;;;;5011700;28;20081;-39
2023/01/17 12:22:13;;;;;;;2.03;0.40;;;14.40;1.00;;;;;;5011710;28;20049;-39
2023/01/17 12:24:50;;;;;;;4.80;0.98;;;14.40;1.00;;;;;;5011629;28;20077;-39
2023/01/17 12:27:52;;;;;;;1.52;0.40;;;14.30;1.00;;;;;;5013754;28;20068;-39
2023/01/17 12:30:37;;;;;;;0.90;0.40;;;14.30;1.00;;;;;;5015517;28;20460;-40
2023/01/17 12:33:37;;;;;;;2.67;0.20;;;14.30;1.00;;;;;;5015117;28;20528;-40
2023/01/17 12:36:22;;;;;;;2.35;0.40;;;14.30;1.00;;;;;;5015331;28;20049;-40
2023/01/17 12:38:49;;;;;;;1.05;0.28;;;14.30;1.00;;;;;;5015400;28;20099;-40
2023/01/17 12:41:37;;;;;;;0.60;0.20;;;14.30;1.00;;;;;;5013955;28;20038;-40
2023/01/17 12:44:04;;;;;;;3.05;0.30;;;14.30;1.00;;;;;;5015031;28;20049;-40
2023/01/17 12:46:41;;;;;;;0.82;0.20;;;14.20;1.00;;;;;;5014986;28;20046;-39
2023/01/17 12:49:27;;;;;;;0.45;0.20;;;14.30;1.00;;;;;;5015202;28;20054;-39
2023/01/17 12:52:02;;;;;;;2.17;0.75;;;14.20;1.00;;;;;;5015070;28;20046;-39
2023/01/17 12:54:39;;;;;;;1.20;0.30;;;14.20;1.00;;;;;;5014876;28;20066;-39
2023/01/17 12:57:22;;;;;;;1.35;0.40;;;14.30;1.00;;;;;;5014897;28;20053;-39
2023/01/17 13:00:12;;;;;;;1.50;0.30;;;14.20;1.00;;;;;;5014864;28;20041;-39
2023/01/17 13:02:46;;;;;;;1.85;0.40;;;14.20;1.00;;;;;;5014684;28;20046;-40
2023/01/17 13:05:22;;;;;;;0.55;0.22;;;14.20;1.00;;;;;;5014596;28;20497;-39
2023/01/17 13:08:07;;;;;;;1.48;0.57;;;14.20;1.00;;;;;;5014866;28;20073;-39
2023/01/17 13:10:39;;;;;;;0.68;0.20;;;14.20;1.00;;;;;;5014687;28;20075;-40
2023/01/17 13:13:34;;;;;;;2.17;0.35;;;14.20;1.00;;;;;;5014516;28;20038;-40
2023/01/17 13:16:30;;;;;;;1.85;0.63;;;14.10;1.00;;;;;;5012346;28;20057;-40
2023/01/17 13:19:04;;;;;;;1.92;0.43;;;14.10;1.00;;;;;;5014571;28;20129;-40
2023/01/17 13:21:32;;;;;;;1.13;0.20;;;14.10;1.00;;;;;;5014530;28;20056;-40
2023/01/17 13:24:02;;;;;;;1.65;0.50;;;14.10;1.00;;;;;;5014206;28;20117;-40
2023/01/17 13:26:54;;;;;;;1.13;0.13;;;14.10;1.00;;;;;;5014426;28;20042;-40
2023/01/17 13:29:34;;;;;;;4.03;0.80;;;14.10;1.00;;;;;;5014503;28;20046;-40
2023/01/17 13:32:37;;;;;;;1.08;0.40;;;14.10;1.00;;;;;;5014169;28;20066;-40
2023/01/17 13:35:34;;;;;;;1.25;0.47;;;14.10;1.00;;;;;;5014477;28;20049;-40
2023/01/17 13:38:38;;;;;;;1.00;0.20;;;14.10;1.00;;;;;;5013812;28;20068;-40
2023/01/17 13:41:13;;;;;;;1.83;0.38;;;14.10;1.00;;;;;;5014023;28;20449;-39
2023/01/17 13:46:30;;;;;;;1.80;0.35;;;14.00;1.00;;;;;;5012716;28;20041;-39
2023/01/17 13:49:30;;;;;;;0.95;0.28;;;14.00;1.00;;;;;;5013886;28;20485;-39
2023/01/17 13:52:00;;;;;;;1.23;0.68;;;14.00;1.00;;;;;;5009192;28;20061;-39
2023/01/17 13:54:31;;;;;;;1.48;0.45;;;14.00;1.00;;;;;;5013697;28;20052;-40
2023/01/17 13:57:27;;;;;;;1.13;0.32;;;14.00;1.00;;;;;;5013763;28;20493;-39
2023/01/17 13:59:56;;;;;;;0.85;0.43;;;14.00;1.00;;;;;;5013684;28;20404;-39
2023/01/17 14:02:32;;;;;;;1.23;0.35;;;14.00;1.00;;;;;;5013605;28;20050;-39
2023/01/17 14:05:20;;;;;;;0.85;0.30;;;14.00;1.00;;;;;;5012230;28;20042;-39
2023/01/17 14:07:54;;;;;;;0.77;0.30;;;14.00;1.00;;;;;;5013581;28;20095;-39
2023/01/17 14:10:21;;;;;;;1.67;0.45;;;13.90;1.00;;;;;;5013590;28;20053;-39
2023/01/17 14:12:48;;;;;;;3.10;0.40;;;14.00;1.00;;;;;;5013541;28;20073;-39
2023/01/17 14:15:25;;;;;;;0.82;0.20;;;14.00;1.00;;;;;;5013429;28;20042;-40
2023/01/17 14:18:03;;;;;;;2.78;0.50;;;14.00;1.00;;;;;;5013488;28;20567;-40
2023/01/17 14:20:41;;;;;;;2.15;0.60;;;14.00;1.00;;;;;;5013381;28;20320;-40
2023/01/17 14:23:24;;;;;;;1.75;0.32;;;13.90;1.00;;;;;;5013188;28;20042;-39
2023/01/17 14:25:52;;;;;;;1.63;0.52;;;13.90;1.00;;;;;;5013387;28;20448;-40
2023/01/17 14:28:25;;;;;;;2.20;0.43;;;13.90;1.00;;;;;;5013227;28;20046;-40
2023/01/17 14:30:54;;;;;;;0.68;0.15;;;13.90;1.00;;;;;;5013234;28;20080;-39
2023/01/17 14:33:26;;;;;;;3.50;0.60;;;13.90;1.00;;;;;;5013020;28;20041;-40
2023/01/17 14:36:03;;;;;;;1.90;0.40;;;13.90;1.00;;;;;;5013152;28;20561;-40
2023/01/17 14:38:32;;;;;;;1.35;0.40;;;13.90;1.00;;;;;;5011785;28;20460;-40
2023/01/17 14:41:18;;;;;;;2.55;0.38;;;13.90;1.00;;;;;;5012886;28;20453;-40
2023/01/17 14:43:47;;;;;;;3.40;0.40;;;13.80;1.00;;;;;;5012815;28;20053;-40
2023/01/17 14:46:21;;;;;;;0.80;0.20;;;13.90;1.00;;;;;;5012979;28;20478;-40
2023/01/17 14:48:48;;;;;;;;;;;13.80;1.00;;;;;;5012958;28;20121;-40
2023/01/17 14:51:23;;;;;;;0.68;0.30;;;13.80;1.00;;;;;;5011352;28;19921;-40
2023/01/17 14:54:01;;;;;;;2.35;0.32;;;13.80;1.00;;;;;;5012644;28;20529;-40
2023/01/17 14:56:30;;;;;;;3.03;0.88;;;13.80;1.00;;;;;;5011057;28;20065;-40
2023/01/17 14:59:13;;;;;;;0.75;0.30;;;13.80;1.00;;;;;;5011213;28;20049;-45
2023/01/17 15:01:41;;;;;;;5.80;0.45;;;13.80;1.00;;;;;;5012501;28;20038;-40
2023/01/17 15:04:23;;;;;;;1.35;0.50;;;13.80;1.00;;;;;;5012315;28;20408;-40